sensor_id;sensor_type;location;lat;lon;timestamp;P1;durP1;ratioP1;P2;durP2;ratioP2
30635;SDS011;17400;52.392;9.750;2023-09-19T00:00:55;1.45;;;0.85;;
30635;SDS011;17400;52.392;9.750;2023-09-19T00:03:25;1.45;;;0.90;;
30635;SDS011;17400;52.392;9.750;2023-09-19T00:05:54;0.60;;;0.60;;
30635;SDS011;17400;52.392;9.750;2023-09-19T00:08:23;2.55;;;1.00;;
30635;SDS011;17400;52.392;9.750;2023-09-19T00:10:50;3.40;;;0.93;;
30635;SDS011;17400;52.392;9.750;2023-09-19T00:13:20;1.48;;;0.80;;
30635;SDS011;17400;52.392;9.750;2023-09-19T00:15:48;1.52;;;0.82;;
30635;SDS011;17400;52.392;9.750;2023-09-19T00:18:17;1.30;;;0.88;;
30635;SDS011;17400;52.392;9.750;2023-09-19T00:20:47;1.05;;;0.80;;
30635;SDS011;17400;52.392;9.750;2023-09-19T00:23:15;2.60;;;1.48;;
30635;SDS011;17400;52.392;9.750;2023-09-19T00:25:43;1.20;;;1.08;;
30635;SDS011;17400;52.392;9.750;2023-09-19T00:28:11;1.55;;;1.02;;
30635;SDS011;17400;52.392;9.750;2023-09-19T00:30:41;1.45;;;1.20;;
30635;SDS011;17400;52.392;9.750;2023-09-19T00:33:10;2.72;;;1.30;;
30635;SDS011;17400;52.392;9.750;2023-09-19T00:35:47;1.63;;;1.30;;
30635;SDS011;17400;52.392;9.750;2023-09-19T00:38:15;1.60;;;0.95;;
30635;SDS011;17400;52.392;9.750;2023-09-19T00:40:49;2.78;;;1.48;;
30635;SDS011;17400;52.392;9.750;2023-09-19T00:43:18;3.15;;;1.42;;
30635;SDS011;17400;52.392;9.750;2023-09-19T00:45:47;1.30;;;1.17;;
30635;SDS011;17400;52.392;9.750;2023-09-19T00:48:17;2.28;;;1.80;;
30635;SDS011;17400;52.392;9.750;2023-09-19T00:50:48;3.72;;;1.90;;
30635;SDS011;17400;52.392;9.750;2023-09-19T00:53:17;2.70;;;1.60;;
30635;SDS011;17400;52.392;9.750;2023-09-19T00:55:49;3.03;;;1.80;;
30635;SDS011;17400;52.392;9.750;2023-09-19T00:58:18;1.90;;;1.50;;
30635;SDS011;17400;52.392;9.750;2023-09-19T01:00:47;3.83;;;1.80;;
30635;SDS011;17400;52.392;9.750;2023-09-19T01:03:15;2.40;;;1.75;;
30635;SDS011;17400;52.392;9.750;2023-09-19T01:05:45;3.83;;;2.17;;
30635;SDS011;17400;52.392;9.750;2023-09-19T01:08:14;2.95;;;1.60;;
30635;SDS011;17400;52.392;9.750;2023-09-19T01:10:44;1.65;;;1.45;;
30635;SDS011;17400;52.392;9.750;2023-09-19T01:13:21;3.90;;;1.63;;
30635;SDS011;17400;52.392;9.750;2023-09-19T01:15:55;3.40;;;2.08;;
30635;SDS011;17400;52.392;9.750;2023-09-19T01:18:34;3.25;;;2.00;;
30635;SDS011;17400;52.392;9.750;2023-09-19T01:21:08;3.08;;;1.75;;
30635;SDS011;17400;52.392;9.750;2023-09-19T01:26:54;2.10;;;1.40;;
30635;SDS011;17400;52.392;9.750;2023-09-19T01:29:33;2.45;;;1.60;;
30635;SDS011;17400;52.392;9.750;2023-09-19T01:32:08;2.63;;;1.83;;
30635;SDS011;17400;52.392;9.750;2023-09-19T01:34:44;2.65;;;1.80;;
30635;SDS011;17400;52.392;9.750;2023-09-19T01:37:15;6.75;;;2.50;;
30635;SDS011;17400;52.392;9.750;2023-09-19T01:39:46;3.08;;;1.92;;
30635;SDS011;17400;52.392;9.750;2023-09-19T01:42:19;2.67;;;1.75;;
30635;SDS011;17400;52.392;9.750;2023-09-19T01:44:54;2.50;;;1.80;;
30635;SDS011;17400;52.392;9.750;2023-09-19T01:47:32;3.67;;;1.98;;
30635;SDS011;17400;52.392;9.750;2023-09-19T01:50:07;3.00;;;2.08;;
30635;SDS011;17400;52.392;9.750;2023-09-19T01:52:43;2.38;;;1.67;;
30635;SDS011;17400;52.392;9.750;2023-09-19T01:55:15;2.53;;;1.95;;
30635;SDS011;17400;52.392;9.750;2023-09-19T01:57:49;2.58;;;1.98;;
30635;SDS011;17400;52.392;9.750;2023-09-19T02:00:26;4.35;;;2.20;;
30635;SDS011;17400;52.392;9.750;2023-09-19T02:02:57;3.25;;;2.10;;
30635;SDS011;17400;52.392;9.750;2023-09-19T02:05:27;3.58;;;2.25;;
30635;SDS011;17400;52.392;9.750;2023-09-19T02:07:55;3.92;;;2.00;;
30635;SDS011;17400;52.392;9.750;2023-09-19T02:10:25;3.97;;;2.17;;
30635;SDS011;17400;52.392;9.750;2023-09-19T02:12:52;3.92;;;2.72;;
30635;SDS011;17400;52.392;9.750;2023-09-19T02:15:20;4.95;;;2.15;;
30635;SDS011;17400;52.392;9.750;2023-09-19T02:17:48;4.05;;;2.50;;
30635;SDS011;17400;52.392;9.750;2023-09-19T02:20:17;4.63;;;2.38;;
30635;SDS011;17400;52.392;9.750;2023-09-19T02:22:46;3.35;;;1.80;;
30635;SDS011;17400;52.392;9.750;2023-09-19T02:25:16;2.55;;;2.10;;
30635;SDS011;17400;52.392;9.750;2023-09-19T02:27:46;5.70;;;2.80;;
30635;SDS011;17400;52.392;9.750;2023-09-19T02:30:13;3.75;;;2.35;;
30635;SDS011;17400;52.392;9.750;2023-09-19T02:32:42;4.28;;;2.13;;
30635;SDS011;17400;52.392;9.750;2023-09-19T02:35:11;3.30;;;2.40;;
30635;SDS011;17400;52.392;9.750;2023-09-19T02:37:41;4.50;;;2.40;;
30635;SDS011;17400;52.392;9.750;2023-09-19T02:40:09;4.22;;;2.55;;
30635;SDS011;17400;52.392;9.750;2023-09-19T02:42:45;2.00;;;1.73;;
30635;SDS011;17400;52.392;9.750;2023-09-19T02:45:15;3.70;;;2.42;;
30635;SDS011;17400;52.392;9.750;2023-09-19T02:47:45;2.53;;;2.10;;
30635;SDS011;17400;52.392;9.750;2023-09-19T02:50:14;3.33;;;1.98;;
30635;SDS011;17400;52.392;9.750;2023-09-19T02:52:44;6.20;;;2.60;;
30635;SDS011;17400;52.392;9.750;2023-09-19T02:55:14;3.10;;;2.08;;
30635;SDS011;17400;52.392;9.750;2023-09-19T02:57:45;3.78;;;2.58;;
30635;SDS011;17400;52.392;9.750;2023-09-19T03:00:14;4.43;;;3.60;;
30635;SDS011;17400;52.392;9.750;2023-09-19T03:02:42;6.70;;;2.15;;
30635;SDS011;17400;52.392;9.750;2023-09-19T03:05:11;3.40;;;2.65;;
30635;SDS011;17400;52.392;9.750;2023-09-19T03:07:40;3.60;;;2.58;;
30635;SDS011;17400;52.392;9.750;2023-09-19T03:10:10;4.18;;;2.55;;
30635;SDS011;17400;52.392;9.750;2023-09-19T03:12:38;5.88;;;2.75;;
30635;SDS011;17400;52.392;9.750;2023-09-19T03:15:07;4.32;;;3.00;;
30635;SDS011;17400;52.392;9.750;2023-09-19T03:17:36;5.00;;;2.30;;
30635;SDS011;17400;52.392;9.750;2023-09-19T03:20:05;5.68;;;2.70;;
30635;SDS011;17400;52.392;9.750;2023-09-19T03:22:35;4.35;;;2.17;;
30635;SDS011;17400;52.392;9.750;2023-09-19T03:25:03;4.70;;;2.67;;
30635;SDS011;17400;52.392;9.750;2023-09-19T03:27:35;4.43;;;2.25;;
30635;SDS011;17400;52.392;9.750;2023-09-19T03:30:03;5.50;;;2.50;;
30635;SDS011;17400;52.392;9.750;2023-09-19T03:32:35;5.63;;;3.40;;
30635;SDS011;17400;52.392;9.750;2023-09-19T03:35:03;7.65;;;2.60;;
30635;SDS011;17400;52.392;9.750;2023-09-19T03:37:32;2.95;;;2.17;;
30635;SDS011;17400;52.392;9.750;2023-09-19T03:40:00;4.53;;;2.17;;
30635;SDS011;17400;52.392;9.750;2023-09-19T03:42:31;2.30;;;1.80;;
30635;SDS011;17400;52.392;9.750;2023-09-19T03:45:00;3.30;;;1.83;;
30635;SDS011;17400;52.392;9.750;2023-09-19T03:47:32;3.58;;;2.08;;
30635;SDS011;17400;52.392;9.750;2023-09-19T03:50:00;7.63;;;1.75;;
30635;SDS011;17400;52.392;9.750;2023-09-19T03:52:28;5.13;;;2.30;;
30635;SDS011;17400;52.392;9.750;2023-09-19T03:54:55;2.08;;;1.48;;
30635;SDS011;17400;52.392;9.750;2023-09-19T03:57:22;3.78;;;2.17;;
30635;SDS011;17400;52.392;9.750;2023-09-19T03:59:50;7.20;;;5.28;;
30635;SDS011;17400;52.392;9.750;2023-09-19T04:02:20;6.07;;;3.28;;
30635;SDS011;17400;52.392;9.750;2023-09-19T04:04:50;3.28;;;1.83;;
30635;SDS011;17400;52.392;9.750;2023-09-19T04:07:18;8.50;;;2.78;;
30635;SDS011;17400;52.392;9.750;2023-09-19T04:09:49;5.47;;;3.90;;
30635;SDS011;17400;52.392;9.750;2023-09-19T04:12:19;3.97;;;2.30;;
30635;SDS011;17400;52.392;9.750;2023-09-19T04:14:46;4.15;;;1.85;;
30635;SDS011;17400;52.392;9.750;2023-09-19T04:17:15;2.42;;;1.88;;
30635;SDS011;17400;52.392;9.750;2023-09-19T04:19:44;2.67;;;1.58;;
30635;SDS011;17400;52.392;9.750;2023-09-19T04:22:13;2.47;;;1.58;;
30635;SDS011;17400;52.392;9.750;2023-09-19T04:24:40;2.80;;;1.25;;
30635;SDS011;17400;52.392;9.750;2023-09-19T04:27:08;3.40;;;2.03;;
30635;SDS011;17400;52.392;9.750;2023-09-19T04:29:38;2.50;;;1.42;;
30635;SDS011;17400;52.392;9.750;2023-09-19T04:32:08;4.03;;;1.45;;
30635;SDS011;17400;52.392;9.750;2023-09-19T04:34:36;3.63;;;1.75;;
30635;SDS011;17400;52.392;9.750;2023-09-19T04:37:06;5.13;;;2.30;;
30635;SDS011;17400;52.392;9.750;2023-09-19T04:39:34;2.78;;;2.10;;
30635;SDS011;17400;52.392;9.750;2023-09-19T04:42:01;3.60;;;1.75;;
30635;SDS011;17400;52.392;9.750;2023-09-19T04:44:30;5.97;;;1.75;;
30635;SDS011;17400;52.392;9.750;2023-09-19T04:46:58;3.08;;;1.70;;
30635;SDS011;17400;52.392;9.750;2023-09-19T04:49:26;4.25;;;2.08;;
30635;SDS011;17400;52.392;9.750;2023-09-19T04:51:54;3.45;;;2.28;;
30635;SDS011;17400;52.392;9.750;2023-09-19T04:54:23;3.58;;;1.80;;
30635;SDS011;17400;52.392;9.750;2023-09-19T04:56:51;2.40;;;1.67;;
30635;SDS011;17400;52.392;9.750;2023-09-19T04:59:19;2.60;;;1.75;;
30635;SDS011;17400;52.392;9.750;2023-09-19T05:01:46;4.43;;;2.40;;
30635;SDS011;17400;52.392;9.750;2023-09-19T05:04:16;2.45;;;1.52;;
30635;SDS011;17400;52.392;9.750;2023-09-19T05:06:44;4.78;;;2.72;;
30635;SDS011;17400;52.392;9.750;2023-09-19T05:09:12;4.88;;;2.53;;
30635;SDS011;17400;52.392;9.750;2023-09-19T05:11:43;4.15;;;2.03;;
30635;SDS011;17400;52.392;9.750;2023-09-19T05:14:11;2.80;;;1.73;;
30635;SDS011;17400;52.392;9.750;2023-09-19T05:16:39;2.35;;;1.75;;
30635;SDS011;17400;52.392;9.750;2023-09-19T05:19:07;7.15;;;2.75;;
30635;SDS011;17400;52.392;9.750;2023-09-19T05:21:38;4.07;;;2.22;;
30635;SDS011;17400;52.392;9.750;2023-09-19T05:24:06;3.58;;;2.35;;
30635;SDS011;17400;52.392;9.750;2023-09-19T05:26:36;4.20;;;2.53;;
30635;SDS011;17400;52.392;9.750;2023-09-19T05:29:06;6.03;;;2.85;;
30635;SDS011;17400;52.392;9.750;2023-09-19T05:31:34;6.13;;;3.00;;
30635;SDS011;17400;52.392;9.750;2023-09-19T05:34:07;4.00;;;2.75;;
30635;SDS011;17400;52.392;9.750;2023-09-19T05:36:36;4.45;;;3.00;;
30635;SDS011;17400;52.392;9.750;2023-09-19T05:39:05;4.75;;;3.35;;
30635;SDS011;17400;52.392;9.750;2023-09-19T05:41:35;3.75;;;2.85;;
30635;SDS011;17400;52.392;9.750;2023-09-19T05:44:07;4.68;;;3.17;;
30635;SDS011;17400;52.392;9.750;2023-09-19T05:46:35;6.03;;;3.53;;
30635;SDS011;17400;52.392;9.750;2023-09-19T05:49:03;7.28;;;3.45;;
30635;SDS011;17400;52.392;9.750;2023-09-19T05:51:31;4.35;;;3.08;;
30635;SDS011;17400;52.392;9.750;2023-09-19T05:53:59;6.63;;;3.65;;
30635;SDS011;17400;52.392;9.750;2023-09-19T05:56:27;8.52;;;5.60;;
30635;SDS011;17400;52.392;9.750;2023-09-19T05:58:54;5.05;;;3.58;;
30635;SDS011;17400;52.392;9.750;2023-09-19T06:01:24;6.97;;;3.28;;
30635;SDS011;17400;52.392;9.750;2023-09-19T06:03:52;8.85;;;3.83;;
30635;SDS011;17400;52.392;9.750;2023-09-19T06:06:20;5.00;;;3.13;;
30635;SDS011;17400;52.392;9.750;2023-09-19T06:08:50;5.70;;;3.03;;
30635;SDS011;17400;52.392;9.750;2023-09-19T06:11:18;6.22;;;3.55;;
30635;SDS011;17400;52.392;9.750;2023-09-19T06:13:47;5.30;;;3.35;;
30635;SDS011;17400;52.392;9.750;2023-09-19T06:16:14;3.17;;;2.55;;
30635;SDS011;17400;52.392;9.750;2023-09-19T06:18:44;6.65;;;3.33;;
30635;SDS011;17400;52.392;9.750;2023-09-19T06:21:11;7.00;;;3.25;;
30635;SDS011;17400;52.392;9.750;2023-09-19T06:23:39;4.38;;;2.60;;
30635;SDS011;17400;52.392;9.750;2023-09-19T06:26:07;6.95;;;3.13;;
30635;SDS011;17400;52.392;9.750;2023-09-19T06:28:35;5.45;;;2.75;;
30635;SDS011;17400;52.392;9.750;2023-09-19T06:31:03;4.75;;;3.05;;
30635;SDS011;17400;52.392;9.750;2023-09-19T06:33:36;3.30;;;2.13;;
30635;SDS011;17400;52.392;9.750;2023-09-19T06:36:07;6.78;;;2.42;;
30635;SDS011;17400;52.392;9.750;2023-09-19T06:38:35;4.97;;;2.40;;
30635;SDS011;17400;52.392;9.750;2023-09-19T06:41:05;4.03;;;2.65;;
30635;SDS011;17400;52.392;9.750;2023-09-19T06:43:33;4.20;;;2.60;;
30635;SDS011;17400;52.392;9.750;2023-09-19T06:46:02;4.70;;;2.95;;
30635;SDS011;17400;52.392;9.750;2023-09-19T06:48:30;3.45;;;2.75;;
30635;SDS011;17400;52.392;9.750;2023-09-19T06:50:59;5.80;;;1.90;;
30635;SDS011;17400;52.392;9.750;2023-09-19T06:53:32;17.58;;;2.92;;
30635;SDS011;17400;52.392;9.750;2023-09-19T06:56:01;5.03;;;2.45;;
30635;SDS011;17400;52.392;9.750;2023-09-19T06:58:29;5.35;;;2.47;;
30635;SDS011;17400;52.392;9.750;2023-09-19T07:00:58;5.47;;;2.97;;
30635;SDS011;17400;52.392;9.750;2023-09-19T07:03:26;3.03;;;2.28;;
30635;SDS011;17400;52.392;9.750;2023-09-19T07:05:55;5.07;;;2.40;;
30635;SDS011;17400;52.392;9.750;2023-09-19T07:08:25;4.45;;;2.47;;
30635;SDS011;17400;52.392;9.750;2023-09-19T07:10:55;8.95;;;3.05;;
30635;SDS011;17400;52.392;9.750;2023-09-19T07:13:23;2.88;;;1.85;;
30635;SDS011;17400;52.392;9.750;2023-09-19T07:15:51;3.83;;;2.45;;
30635;SDS011;17400;52.392;9.750;2023-09-19T07:18:20;3.80;;;1.42;;
30635;SDS011;17400;52.392;9.750;2023-09-19T07:20:48;2.47;;;1.20;;
30635;SDS011;17400;52.392;9.750;2023-09-19T07:23:17;6.88;;;1.20;;
30635;SDS011;17400;52.392;9.750;2023-09-19T07:25:47;2.72;;;1.02;;
30635;SDS011;17400;52.392;9.750;2023-09-19T07:28:16;3.97;;;1.65;;
30635;SDS011;17400;52.392;9.750;2023-09-19T07:30:44;4.75;;;1.40;;
30635;SDS011;17400;52.392;9.750;2023-09-19T07:33:13;4.80;;;1.23;;
30635;SDS011;17400;52.392;9.750;2023-09-19T07:35:45;4.13;;;1.30;;
30635;SDS011;17400;52.392;9.750;2023-09-19T07:38:13;3.40;;;1.13;;
30635;SDS011;17400;52.392;9.750;2023-09-19T07:40:41;4.50;;;2.10;;
30635;SDS011;17400;52.392;9.750;2023-09-19T07:43:10;3.55;;;1.08;;
30635;SDS011;17400;52.392;9.750;2023-09-19T07:45:39;2.80;;;1.30;;
30635;SDS011;17400;52.392;9.750;2023-09-19T07:48:07;2.95;;;1.00;;
30635;SDS011;17400;52.392;9.750;2023-09-19T07:50:40;1.20;;;0.60;;
30635;SDS011;17400;52.392;9.750;2023-09-19T07:53:10;3.38;;;0.80;;
30635;SDS011;17400;52.392;9.750;2023-09-19T07:55:39;2.38;;;0.88;;
30635;SDS011;17400;52.392;9.750;2023-09-19T07:58:07;2.05;;;0.77;;
30635;SDS011;17400;52.392;9.750;2023-09-19T08:00:35;1.77;;;0.80;;
30635;SDS011;17400;52.392;9.750;2023-09-19T08:03:04;2.97;;;1.20;;
30635;SDS011;17400;52.392;9.750;2023-09-19T08:05:41;1.88;;;0.50;;
30635;SDS011;17400;52.392;9.750;2023-09-19T08:08:10;4.30;;;1.33;;
30635;SDS011;17400;52.392;9.750;2023-09-19T08:10:40;4.55;;;1.05;;
30635;SDS011;17400;52.392;9.750;2023-09-19T08:13:09;4.35;;;1.48;;
30635;SDS011;17400;52.392;9.750;2023-09-19T08:15:42;2.78;;;0.80;;
30635;SDS011;17400;52.392;9.750;2023-09-19T08:18:13;2.85;;;1.15;;
30635;SDS011;17400;52.392;9.750;2023-09-19T08:20:41;7.13;;;1.33;;
30635;SDS011;17400;52.392;9.750;2023-09-19T08:23:12;2.97;;;0.80;;
30635;SDS011;17400;52.392;9.750;2023-09-19T08:25:40;2.65;;;1.15;;
30635;SDS011;17400;52.392;9.750;2023-09-19T08:28:08;2.42;;;0.73;;
30635;SDS011;17400;52.392;9.750;2023-09-19T08:30:38;9.23;;;1.15;;
30635;SDS011;17400;52.392;9.750;2023-09-19T08:33:07;3.83;;;0.75;;
30635;SDS011;17400;52.392;9.750;2023-09-19T08:35:36;3.75;;;0.70;;
30635;SDS011;17400;52.392;9.750;2023-09-19T08:38:06;6.00;;;1.67;;
30635;SDS011;17400;52.392;9.750;2023-09-19T08:40:36;3.17;;;0.77;;
30635;SDS011;17400;52.392;9.750;2023-09-19T08:43:06;1.40;;;0.60;;
30635;SDS011;17400;52.392;9.750;2023-09-19T08:45:34;2.50;;;0.95;;
30635;SDS011;17400;52.392;9.750;2023-09-19T08:48:12;4.75;;;1.05;;
30635;SDS011;17400;52.392;9.750;2023-09-19T08:50:51;7.45;;;1.60;;
30635;SDS011;17400;52.392;9.750;2023-09-19T08:53:26;4.80;;;1.38;;
30635;SDS011;17400;52.392;9.750;2023-09-19T08:55:59;1.98;;;0.45;;
30635;SDS011;17400;52.392;9.750;2023-09-19T08:58:31;6.95;;;1.02;;
30635;SDS011;17400;52.392;9.750;2023-09-19T09:01:01;1.38;;;0.80;;
30635;SDS011;17400;52.392;9.750;2023-09-19T09:03:33;3.58;;;1.20;;
30635;SDS011;17400;52.392;9.750;2023-09-19T09:06:04;7.47;;;1.40;;
30635;SDS011;17400;52.392;9.750;2023-09-19T09:08:34;5.10;;;1.30;;
30635;SDS011;17400;52.392;9.750;2023-09-19T09:11:02;1.90;;;0.80;;
30635;SDS011;17400;52.392;9.750;2023-09-19T09:13:34;2.95;;;0.80;;
30635;SDS011;17400;52.392;9.750;2023-09-19T09:16:04;1.90;;;0.98;;
30635;SDS011;17400;52.392;9.750;2023-09-19T09:18:31;3.08;;;1.05;;
30635;SDS011;17400;52.392;9.750;2023-09-19T09:20:59;3.75;;;1.10;;
30635;SDS011;17400;52.392;9.750;2023-09-19T09:23:28;4.20;;;1.05;;
30635;SDS011;17400;52.392;9.750;2023-09-19T09:25:58;1.77;;;1.40;;
30635;SDS011;17400;52.392;9.750;2023-09-19T09:28:30;3.00;;;1.75;;
30635;SDS011;17400;52.392;9.750;2023-09-19T09:31:00;2.00;;;1.10;;
30635;SDS011;17400;52.392;9.750;2023-09-19T09:33:29;1.75;;;1.05;;
30635;SDS011;17400;52.392;9.750;2023-09-19T09:35:58;2.80;;;0.80;;
30635;SDS011;17400;52.392;9.750;2023-09-19T09:38:42;4.60;;;1.75;;
30635;SDS011;17400;52.392;9.750;2023-09-19T09:41:11;2.97;;;1.55;;
30635;SDS011;17400;52.392;9.750;2023-09-19T09:43:42;5.70;;;0.93;;
30635;SDS011;17400;52.392;9.750;2023-09-19T09:46:14;3.30;;;1.63;;
30635;SDS011;17400;52.392;9.750;2023-09-19T09:49:05;4.38;;;1.48;;
30635;SDS011;17400;52.392;9.750;2023-09-19T09:51:58;3.35;;;1.50;;
30635;SDS011;17400;52.392;9.750;2023-09-19T09:54:36;2.13;;;0.90;;
30635;SDS011;17400;52.392;9.750;2023-09-19T09:57:05;2.65;;;0.80;;
30635;SDS011;17400;52.392;9.750;2023-09-19T09:59:44;1.52;;;1.00;;
30635;SDS011;17400;52.392;9.750;2023-09-19T10:02:14;1.80;;;0.88;;
30635;SDS011;17400;52.392;9.750;2023-09-19T10:04:48;3.22;;;0.95;;
30635;SDS011;17400;52.392;9.750;2023-09-19T10:07:26;4.72;;;1.20;;
30635;SDS011;17400;52.392;9.750;2023-09-19T10:10:00;2.38;;;1.40;;
30635;SDS011;17400;52.392;9.750;2023-09-19T10:12:43;2.30;;;1.20;;
30635;SDS011;17400;52.392;9.750;2023-09-19T10:15:15;1.80;;;0.73;;
30635;SDS011;17400;52.392;9.750;2023-09-19T10:17:47;6.30;;;1.35;;
30635;SDS011;17400;52.392;9.750;2023-09-19T10:20:16;1.95;;;0.90;;
30635;SDS011;17400;52.392;9.750;2023-09-19T10:23:00;5.93;;;1.27;;
30635;SDS011;17400;52.392;9.750;2023-09-19T10:25:37;1.60;;;1.00;;
30635;SDS011;17400;52.392;9.750;2023-09-19T10:28:07;3.53;;;1.52;;
30635;SDS011;17400;52.392;9.750;2023-09-19T10:30:40;5.47;;;1.25;;
30635;SDS011;17400;52.392;9.750;2023-09-19T10:33:11;5.82;;;1.35;;
30635;SDS011;17400;52.392;9.750;2023-09-19T10:35:42;2.05;;;1.25;;
30635;SDS011;17400;52.392;9.750;2023-09-19T10:38:11;2.85;;;1.08;;
30635;SDS011;17400;52.392;9.750;2023-09-19T10:40:43;3.17;;;1.50;;
30635;SDS011;17400;52.392;9.750;2023-09-19T10:43:13;4.22;;;1.38;;
30635;SDS011;17400;52.392;9.750;2023-09-19T10:45:45;4.07;;;1.25;;
30635;SDS011;17400;52.392;9.750;2023-09-19T10:48:16;3.53;;;1.33;;
30635;SDS011;17400;52.392;9.750;2023-09-19T10:50:47;2.70;;;1.52;;
30635;SDS011;17400;52.392;9.750;2023-09-19T10:53:17;2.25;;;1.02;;
30635;SDS011;17400;52.392;9.750;2023-09-19T10:55:50;4.00;;;2.20;;
30635;SDS011;17400;52.392;9.750;2023-09-19T10:58:24;4.30;;;1.20;;
30635;SDS011;17400;52.392;9.750;2023-09-19T11:00:55;1.80;;;1.08;;
30635;SDS011;17400;52.392;9.750;2023-09-19T11:03:28;2.97;;;1.17;;
30635;SDS011;17400;52.392;9.750;2023-09-19T11:06:02;5.95;;;1.48;;
30635;SDS011;17400;52.392;9.750;2023-09-19T11:08:52;5.93;;;1.40;;
30635;SDS011;17400;52.392;9.750;2023-09-19T11:11:40;2.53;;;1.00;;
30635;SDS011;17400;52.392;9.750;2023-09-19T11:14:17;1.23;;;0.88;;
30635;SDS011;17400;52.392;9.750;2023-09-19T11:20:19;4.20;;;1.00;;
30635;SDS011;17400;52.392;9.750;2023-09-19T11:25:49;4.13;;;1.20;;
30635;SDS011;17400;52.392;9.750;2023-09-19T11:28:33;2.80;;;1.58;;
30635;SDS011;17400;52.392;9.750;2023-09-19T11:40:11;1.63;;;0.82;;
30635;SDS011;17400;52.392;9.750;2023-09-19T11:42:43;3.08;;;0.93;;
30635;SDS011;17400;52.392;9.750;2023-09-19T11:48:25;1.67;;;1.00;;
30635;SDS011;17400;52.392;9.750;2023-09-19T11:50:54;2.97;;;1.10;;
30635;SDS011;17400;52.392;9.750;2023-09-19T11:53:23;2.25;;;0.93;;
30635;SDS011;17400;52.392;9.750;2023-09-19T11:55:58;1.52;;;0.85;;
30635;SDS011;17400;52.392;9.750;2023-09-19T11:58:28;1.70;;;0.88;;
30635;SDS011;17400;52.392;9.750;2023-09-19T12:00:57;4.07;;;1.27;;
30635;SDS011;17400;52.392;9.750;2023-09-19T12:03:32;2.85;;;0.98;;
30635;SDS011;17400;52.392;9.750;2023-09-19T12:06:02;2.08;;;1.45;;
30635;SDS011;17400;52.392;9.750;2023-09-19T12:08:41;5.82;;;1.52;;
30635;SDS011;17400;52.392;9.750;2023-09-19T12:11:13;2.15;;;0.88;;
30635;SDS011;17400;52.392;9.750;2023-09-19T12:13:43;2.33;;;0.90;;
30635;SDS011;17400;52.392;9.750;2023-09-19T12:16:15;4.38;;;1.13;;
30635;SDS011;17400;52.392;9.750;2023-09-19T12:18:46;3.28;;;0.90;;
30635;SDS011;17400;52.392;9.750;2023-09-19T12:21:24;4.95;;;1.25;;
30635;SDS011;17400;52.392;9.750;2023-09-19T12:24:07;5.28;;;1.17;;
30635;SDS011;17400;52.392;9.750;2023-09-19T12:26:40;2.65;;;1.15;;
30635;SDS011;17400;52.392;9.750;2023-09-19T12:29:13;1.70;;;1.15;;
30635;SDS011;17400;52.392;9.750;2023-09-19T12:31:50;1.45;;;0.77;;
30635;SDS011;17400;52.392;9.750;2023-09-19T12:34:23;4.72;;;0.95;;
30635;SDS011;17400;52.392;9.750;2023-09-19T12:37:06;5.50;;;1.80;;
30635;SDS011;17400;52.392;9.750;2023-09-19T12:39:48;1.92;;;1.15;;
30635;SDS011;17400;52.392;9.750;2023-09-19T12:42:18;2.33;;;1.23;;
30635;SDS011;17400;52.392;9.750;2023-09-19T12:44:47;4.05;;;1.08;;
30635;SDS011;17400;52.392;9.750;2023-09-19T12:47:18;1.52;;;0.90;;
30635;SDS011;17400;52.392;9.750;2023-09-19T12:50:06;4.63;;;1.23;;
30635;SDS011;17400;52.392;9.750;2023-09-19T12:52:40;4.00;;;0.93;;
30635;SDS011;17400;52.392;9.750;2023-09-19T12:55:19;0.82;;;0.65;;
30635;SDS011;17400;52.392;9.750;2023-09-19T12:57:55;4.47;;;1.08;;
30635;SDS011;17400;52.392;9.750;2023-09-19T13:00:31;5.63;;;1.75;;
30635;SDS011;17400;52.392;9.750;2023-09-19T13:03:14;3.03;;;1.00;;
30635;SDS011;17400;52.392;9.750;2023-09-19T13:05:48;5.55;;;1.42;;
30635;SDS011;17400;52.392;9.750;2023-09-19T13:08:20;2.90;;;0.90;;
30635;SDS011;17400;52.392;9.750;2023-09-19T13:11:06;2.60;;;1.13;;
30635;SDS011;17400;52.392;9.750;2023-09-19T13:13:37;2.95;;;1.02;;
30635;SDS011;17400;52.392;9.750;2023-09-19T13:16:08;7.85;;;1.63;;
30635;SDS011;17400;52.392;9.750;2023-09-19T13:18:44;6.75;;;1.70;;
30635;SDS011;17400;52.392;9.750;2023-09-19T13:21:14;3.10;;;1.58;;
30635;SDS011;17400;52.392;9.750;2023-09-19T13:23:49;1.27;;;1.00;;
30635;SDS011;17400;52.392;9.750;2023-09-19T13:26:18;4.05;;;1.45;;
30635;SDS011;17400;52.392;9.750;2023-09-19T13:28:46;2.78;;;0.90;;
30635;SDS011;17400;52.392;9.750;2023-09-19T13:31:16;2.03;;;1.00;;
30635;SDS011;17400;52.392;9.750;2023-09-19T13:33:45;1.33;;;0.93;;
30635;SDS011;17400;52.392;9.750;2023-09-19T13:36:14;2.83;;;1.38;;
30635;SDS011;17400;52.392;9.750;2023-09-19T13:38:45;1.63;;;1.13;;
30635;SDS011;17400;52.392;9.750;2023-09-19T13:41:16;2.13;;;1.15;;
30635;SDS011;17400;52.392;9.750;2023-09-19T13:43:44;2.50;;;1.20;;
30635;SDS011;17400;52.392;9.750;2023-09-19T13:46:21;5.40;;;1.20;;
30635;SDS011;17400;52.392;9.750;2023-09-19T13:48:53;2.88;;;1.02;;
30635;SDS011;17400;52.392;9.750;2023-09-19T13:51:24;3.45;;;1.00;;
30635;SDS011;17400;52.392;9.750;2023-09-19T13:53:53;4.70;;;1.05;;
30635;SDS011;17400;52.392;9.750;2023-09-19T13:56:21;2.00;;;0.98;;
30635;SDS011;17400;52.392;9.750;2023-09-19T13:58:49;2.30;;;1.02;;
30635;SDS011;17400;52.392;9.750;2023-09-19T14:01:18;5.90;;;1.85;;
30635;SDS011;17400;52.392;9.750;2023-09-19T14:03:45;2.72;;;1.13;;
30635;SDS011;17400;52.392;9.750;2023-09-19T14:06:16;6.30;;;1.17;;
30635;SDS011;17400;52.392;9.750;2023-09-19T14:08:46;3.83;;;1.70;;
30635;SDS011;17400;52.392;9.750;2023-09-19T14:11:14;8.63;;;1.52;;
30635;SDS011;17400;52.392;9.750;2023-09-19T14:13:43;3.22;;;2.03;;
30635;SDS011;17400;52.392;9.750;2023-09-19T14:16:13;2.42;;;1.13;;
30635;SDS011;17400;52.392;9.750;2023-09-19T14:18:42;3.47;;;0.98;;
30635;SDS011;17400;52.392;9.750;2023-09-19T14:21:09;3.53;;;1.17;;
30635;SDS011;17400;52.392;9.750;2023-09-19T14:23:38;2.47;;;1.35;;
30635;SDS011;17400;52.392;9.750;2023-09-19T14:26:09;2.70;;;1.13;;
30635;SDS011;17400;52.392;9.750;2023-09-19T14:28:38;1.08;;;0.80;;
30635;SDS011;17400;52.392;9.750;2023-09-19T14:31:06;3.53;;;1.67;;
30635;SDS011;17400;52.392;9.750;2023-09-19T14:33:35;2.85;;;2.15;;
30635;SDS011;17400;52.392;9.750;2023-09-19T14:36:05;4.45;;;1.13;;
30635;SDS011;17400;52.392;9.750;2023-09-19T14:38:36;5.50;;;1.13;;
30635;SDS011;17400;52.392;9.750;2023-09-19T14:41:06;3.95;;;1.40;;
30635;SDS011;17400;52.392;9.750;2023-09-19T14:43:37;5.60;;;1.15;;
30635;SDS011;17400;52.392;9.750;2023-09-19T14:46:05;3.80;;;1.23;;
30635;SDS011;17400;52.392;9.750;2023-09-19T14:48:37;6.72;;;1.40;;
30635;SDS011;17400;52.392;9.750;2023-09-19T14:51:05;2.05;;;0.95;;
30635;SDS011;17400;52.392;9.750;2023-09-19T14:53:35;6.75;;;1.67;;
30635;SDS011;17400;52.392;9.750;2023-09-19T14:56:05;3.95;;;1.65;;
30635;SDS011;17400;52.392;9.750;2023-09-19T14:58:36;2.75;;;1.20;;
30635;SDS011;17400;52.392;9.750;2023-09-19T15:01:06;7.57;;;2.53;;
30635;SDS011;17400;52.392;9.750;2023-09-19T15:03:34;2.85;;;1.30;;
30635;SDS011;17400;52.392;9.750;2023-09-19T15:06:03;7.53;;;1.90;;
30635;SDS011;17400;52.392;9.750;2023-09-19T15:08:32;2.17;;;0.98;;
30635;SDS011;17400;52.392;9.750;2023-09-19T15:11:01;5.10;;;1.60;;
30635;SDS011;17400;52.392;9.750;2023-09-19T15:13:34;3.00;;;1.05;;
30635;SDS011;17400;52.392;9.750;2023-09-19T15:16:05;2.00;;;0.88;;
30635;SDS011;17400;52.392;9.750;2023-09-19T15:18:36;2.05;;;0.93;;
30635;SDS011;17400;52.392;9.750;2023-09-19T15:21:05;3.15;;;1.23;;
30635;SDS011;17400;52.392;9.750;2023-09-19T15:23:34;4.47;;;0.98;;
30635;SDS011;17400;52.392;9.750;2023-09-19T15:26:03;1.63;;;1.15;;
30635;SDS011;17400;52.392;9.750;2023-09-19T15:28:31;4.13;;;1.30;;
30635;SDS011;17400;52.392;9.750;2023-09-19T15:31:00;4.13;;;1.25;;